Time;durP1;ratioP1;P1;durP2;ratioP2;P2;SDS_P1;SDS_P2;PMS_P1;PMS_P2;Temp;Humidity;BMP_temperature;BMP_pressure;BME280_temperature;BME280_humidity;BME280_pressure;Samples;Min_cycle;Max_cycle;Signal;HPM_P1;HPM_P2
2021/12/24 00:00:28;;;;;;;;;;;23.20;46.00;;;;;;1642156;72;785;-66
2021/12/24 00:02:30;;;;;;;;;;;23.20;46.00;;;;;;1630235;72;650;-66
2021/12/24 00:04:32;;;;;;;;;;;23.20;46.00;;;;;;1633715;72;714;-67
2021/12/24 00:06:34;;;;;;;;;;;23.20;46.00;;;;;;1629468;72;763;-67
2021/12/24 00:08:36;;;;;;;;;;;23.20;46.00;;;;;;1638292;71;1136;-69
2021/12/24 00:10:38;;;;;;;;;;;23.30;46.20;;;;;;1632271;72;744;-69
2021/12/24 00:12:45;;;;;;;;;;;23.20;46.10;;;;;;1599511;73;885;-67
2021/12/24 00:14:49;;;;;;;;;;;23.20;46.20;;;;;;1640360;72;1550;-66
2021/12/24 00:16:52;;;;;;;;;;;23.30;46.30;;;;;;1632292;72;1926;-67
2021/12/24 00:35:04;;;;;;;;;;;23.30;46.50;;;;;;1640054;72;855;-68
2021/12/24 00:36:58;;;;;;;;;;;23.20;46.60;;;;;;1638115;72;1903;-66
2021/12/24 00:39:00;;;;;;;;;;;23.10;46.70;;;;;;1633506;72;1146;-66
2021/12/24 00:41:02;;;;;;;;;;;23.20;46.70;;;;;;1640453;72;722;-67
2021/12/24 00:43:04;;;;;;;;;;;23.20;46.70;;;;;;1637418;72;781;-65
2021/12/24 00:45:06;;;;;;;;;;;23.20;46.70;;;;;;1636193;72;774;-66
2021/12/24 00:47:08;;;;;;;;;;;23.20;46.60;;;;;;1632580;72;720;-67
2021/12/24 00:49:10;;;;;;;;;;;23.20;46.70;;;;;;1632049;71;1131;-68
2021/12/24 00:51:22;;;;;;;;;;;23.20;46.70;;;;;;1640545;72;711;-66
2021/12/24 00:55:40;;;;;;;;;;;23.30;46.80;;;;;;1635195;72;719;-68
2021/12/24 00:57:44;;;;;;;;;;;23.30;46.90;;;;;;1640292;72;1924;-68
2021/12/24 00:59:45;;;;;;;;;;;23.30;47.00;;;;;;1638315;72;798;-70
2021/12/24 01:01:47;;;;;;;;;;;23.30;47.00;;;;;;1637371;72;749;-69
2021/12/24 01:03:49;;;;;;;;;;;23.20;46.90;;;;;;1631824;72;646;-70
2021/12/24 01:05:51;;;;;;;;;;;23.30;47.00;;;;;;1635549;72;796;-71
2021/12/24 01:07:53;;;;;;;;;;;23.30;47.00;;;;;;1632750;71;1151;-69
2021/12/24 01:09:55;;;;;;;;;;;23.30;47.10;;;;;;1644145;72;784;-70
2021/12/24 01:11:57;;;;;;;;;;;23.30;47.10;;;;;;1640790;72;810;-69
2021/12/24 01:13:59;;;;;;;;;;;23.20;47.00;;;;;;1640478;72;742;-67
2021/12/24 01:16:07;;;;;;;;;;;23.20;47.10;;;;;;1632782;72;1903;-70
2021/12/24 01:20:16;;;;;;;;;;;23.30;47.10;;;;;;1641668;72;676;-72
2021/12/24 01:24:29;;;;;;;;;;;23.30;47.20;;;;;;1630433;72;1511;-70
2021/12/24 01:26:40;;;;;;;;;;;23.30;47.20;;;;;;1628938;72;1075;-66
2021/12/24 01:37:57;;;;;;;;;;;23.30;47.40;;;;;;1631106;72;1923;-69
2021/12/24 01:40:21;;;;;;;;;;;23.30;47.50;;;;;;1608037;72;1112;-68
2021/12/24 01:44:31;;;;;;;;;;;23.20;47.40;;;;;;1616440;72;1626;-68
2021/12/24 01:46:32;;;;;;;;;;;23.30;47.60;;;;;;1617048;72;702;-68
2021/12/24 01:48:34;;;;;;;;;;;23.20;47.50;;;;;;1610182;72;1165;-68
2021/12/24 01:50:37;;;;;;;;;;;23.30;47.60;;;;;;1609180;74;656;-68
2021/12/24 01:52:39;;;;;;;;;;;23.30;47.60;;;;;;1612015;72;783;-67
2021/12/24 01:54:41;;;;;;;;;;;23.30;47.60;;;;;;1631275;72;779;-68
2021/12/24 01:56:44;;;;;;;;;;;23.30;47.60;;;;;;1640800;72;1911;-68
2021/12/24 01:58:46;;;;;;;;;;;23.30;47.60;;;;;;1610259;72;1102;-67
2021/12/24 02:00:50;;;;;;;;;;;23.30;47.60;;;;;;1609320;73;679;-67
2021/12/24 02:02:51;;;;;;;;;;;23.30;47.60;;;;;;1609017;73;769;-69
2021/12/24 02:04:53;;;;;;;;;;;23.30;47.60;;;;;;1609336;74;775;-67
2021/12/24 02:06:55;;;;;;;;;;;23.30;47.70;;;;;;1610122;72;754;-69
2021/12/24 02:08:57;;;;;;;;;;;23.30;47.60;;;;;;1609354;72;1067;-68
2021/12/24 02:10:59;;;;;;;;;;;23.30;47.60;;;;;;1609287;74;732;-66
2021/12/24 02:13:01;;;;;;;;;;;23.30;47.60;;;;;;1609189;74;752;-67
2021/12/24 02:15:04;;;;;;;;;;;23.30;47.60;;;;;;1609147;73;788;-67
2021/12/24 02:17:27;;;;;;;;;;;23.30;47.60;;;;;;1609373;72;1894;-68
2021/12/24 02:28:38;;;;;;;;;;;23.20;47.70;;;;;;1637241;71;1601;-68
2021/12/24 02:30:34;;;;;;;;;;;23.30;47.80;;;;;;1628433;72;1657;-68
2021/12/24 02:32:37;;;;;;;;;;;23.30;47.80;;;;;;1608935;73;700;-68
2021/12/24 02:34:39;;;;;;;;;;;23.30;47.80;;;;;;1608848;73;1681;-69
2021/12/24 02:36:41;;;;;;;;;;;23.30;47.80;;;;;;1610006;72;1928;-69
2021/12/24 02:38:43;;;;;;;;;;;23.30;47.80;;;;;;1609238;72;1130;-70
2021/12/24 02:40:45;;;;;;;;;;;23.30;47.80;;;;;;1609254;73;715;-70
2021/12/24 02:42:51;;;;;;;;;;;23.30;47.80;;;;;;1601082;70;3109;-67
2021/12/24 02:44:51;;;;;;;;;;;23.30;47.80;;;;;;1557392;75;1625;-68
2021/12/24 02:49:10;;;;;;;;;;;23.30;47.80;;;;;;1537575;76;865;-68
2021/12/24 02:55:48;;;;;;;;;;;23.30;47.90;;;;;;1544843;77;1649;-67
2021/12/24 02:57:51;;;;;;;;;;;23.30;47.80;;;;;;1543138;76;1943;-67
2021/12/24 03:00:13;;;;;;;;;;;23.30;47.90;;;;;;1555972;75;760;-67
2021/12/24 03:02:11;;;;;;;;;;;23.30;47.90;;;;;;1575908;75;1738;-67
2021/12/24 03:04:13;;;;;;;;;;;23.30;47.90;;;;;;1577328;75;627;-67
2021/12/24 03:06:18;;;;;;;;;;;23.20;47.90;;;;;;1571492;75;834;-69
2021/12/24 03:08:20;;;;;;;;;;;23.20;47.90;;;;;;1562899;76;682;-67
2021/12/24 03:10:22;;;;;;;;;;;23.30;47.90;;;;;;1562933;76;759;-67
2021/12/24 03:12:23;;;;;;;;;;;23.30;47.90;;;;;;1562879;76;1178;-67
2021/12/24 03:14:25;;;;;;;;;;;23.30;47.90;;;;;;1559957;76;622;-68
2021/12/24 03:16:28;;;;;;;;;;;23.30;47.90;;;;;;1553909;76;765;-69
2021/12/24 03:18:32;;;;;;;;;;;23.30;47.80;;;;;;1547242;76;1895;-67
2021/12/24 03:20:34;;;;;;;;;;;23.30;47.80;;;;;;1536251;77;1677;-67
2021/12/24 03:22:49;;;;;;;;;;;23.30;47.90;;;;;;1536597;77;1062;-68
2021/12/24 03:24:42;;;;;;;;;;;23.30;47.80;;;;;;1534529;77;1713;-67
2021/12/24 03:26:48;;;;;;;;;;;23.30;47.80;;;;;;1536858;76;757;-66
2021/12/24 03:28:50;;;;;;;;;;;23.30;47.90;;;;;;1536791;77;680;-66
2021/12/24 03:30:51;;;;;;;;;;;23.40;47.90;;;;;;1536656;77;662;-66
2021/12/24 03:32:53;;;;;;;;;;;23.40;47.80;;;;;;1536730;77;1178;-68
2021/12/24 03:34:55;;;;;;;;;;;23.40;47.90;;;;;;1537439;76;717;-67
2021/12/24 03:36:57;;;;;;;;;;;23.50;47.90;;;;;;1536499;77;1956;-67
2021/12/24 03:38:59;;;;;;;;;;;23.40;47.80;;;;;;1536776;77;665;-67
2021/12/24 03:41:01;;;;;;;;;;;23.50;47.80;;;;;;1536703;77;714;-68
2021/12/24 03:43:03;;;;;;;;;;;23.50;47.80;;;;;;1536701;77;1112;-69
2021/12/24 03:45:47;;;;;;;;;;;23.50;47.80;;;;;;1537291;76;816;-67
2021/12/24 03:47:17;;;;;;;;;;;23.50;47.80;;;;;;1540710;77;1469;-66
2021/12/24 03:49:56;;;;;;;;;;;23.50;47.80;;;;;;1539134;76;1768;-67
2021/12/24 03:51:51;;;;;;;;;;;23.60;47.80;;;;;;1534171;75;1458;-66
2021/12/24 03:56:02;;;;;;;;;;;23.50;48.00;;;;;;1545934;76;1602;-66
2021/12/24 03:58:04;;;;;;;;;;;23.40;48.10;;;;;;1536622;77;1955;-68
2021/12/24 04:00:11;;;;;;;;;;;23.30;48.20;;;;;;1536686;77;777;-67
2021/12/24 04:02:12;;;;;;;;;;;23.30;48.40;;;;;;1535942;77;2209;-67
2021/12/24 04:04:14;;;;;;;;;;;23.30;48.60;;;;;;1536649;77;543;-68
2021/12/24 04:06:16;;;;;;;;;;;23.20;48.60;;;;;;1536810;76;812;-69
2021/12/24 04:08:18;;;;;;;;;;;23.10;48.70;;;;;;1536693;77;741;-68
2021/12/24 04:10:31;;;;;;;;;;;23.10;48.70;;;;;;1536653;77;759;-66
2021/12/24 04:12:24;;;;;;;;;;;23.10;48.90;;;;;;1534569;77;1145;-66
2021/12/24 04:14:26;;;;;;;;;;;23.10;49.10;;;;;;1536935;76;733;-67
2021/12/24 04:16:28;;;;;;;;;;;23.00;49.10;;;;;;1536761;77;779;-66
2021/12/24 04:25:00;;;;;;;;;;;22.90;49.20;;;;;;1522380;76;1051;-67
2021/12/24 04:27:01;;;;;;;;;;;23.00;49.20;;;;;;1562147;76;698;-68
2021/12/24 04:29:04;;;;;;;;;;;22.90;49.30;;;;;;1562940;76;735;-67
2021/12/24 04:31:06;;;;;;;;;;;22.90;49.30;;;;;;1562765;76;724;-68
2021/12/24 04:33:16;;;;;;;;;;;22.90;49.30;;;;;;1562939;76;1145;-69
2021/12/24 04:35:37;;;;;;;;;;;22.90;49.30;;;;;;1560943;76;1657;-67
2021/12/24 04:39:55;;;;;;;;;;;23.00;49.40;;;;;;1562952;76;714;-66
2021/12/24 04:51:22;;;;;;;;;;;22.90;49.40;;;;;;1562085;76;1614;-66
2021/12/24 05:01:15;;;;;;;;;;;23.00;49.40;;;;;;1548184;76;1892;-68
2021/12/24 05:04:47;;;;;;;;;;;23.00;49.40;;;;;;1536699;77;1631;-68
2021/12/24 05:06:51;;;;;;;;;;;23.00;49.30;;;;;;1535356;76;1597;-67
2021/12/24 05:09:04;;;;;;;;;;;22.90;49.20;;;;;;1534340;77;1623;-68
2021/12/24 05:11:00;;;;;;;;;;;23.00;49.20;;;;;;1535213;77;1683;-68
2021/12/24 05:13:02;;;;;;;;;;;23.00;49.20;;;;;;1536623;77;1129;-68
2021/12/24 05:15:04;;;;;;;;;;;23.00;49.30;;;;;;1536704;77;781;-68
2021/12/24 05:17:35;;;;;;;;;;;23.00;49.30;;;;;;1537201;76;806;-68
2021/12/24 05:21:42;;;;;;;;;;;23.00;49.30;;;;;;1536666;77;1635;-67
2021/12/24 05:23:42;;;;;;;;;;;23.00;49.30;;;;;;1535804;77;1693;-67
2021/12/24 05:25:44;;;;;;;;;;;23.00;49.30;;;;;;1536811;77;728;-67
2021/12/24 05:27:46;;;;;;;;;;;23.00;49.30;;;;;;1543505;76;641;-67
2021/12/24 05:29:48;;;;;;;;;;;23.00;49.30;;;;;;1562817;76;739;-67
2021/12/24 05:31:50;;;;;;;;;;;23.00;49.20;;;;;;1562868;76;1153;-67
2021/12/24 05:33:52;;;;;;;;;;;23.00;49.20;;;;;;1562884;76;570;-67
2021/12/24 05:35:54;;;;;;;;;;;23.00;49.20;;;;;;1547971;76;802;-68
2021/12/24 05:37:55;;;;;;;;;;;23.00;49.20;;;;;;1536646;77;1944;-68
2021/12/24 05:39:57;;;;;;;;;;;23.00;49.20;;;;;;1536645;77;780;-68
2021/12/24 05:41:59;;;;;;;;;;;23.00;49.20;;;;;;1536741;77;1125;-68
2021/12/24 05:44:03;;;;;;;;;;;23.00;49.20;;;;;;1536853;76;921;-68
2021/12/24 05:46:05;;;;;;;;;;;23.00;49.20;;;;;;1540553;77;771;-68
2021/12/24 05:48:07;;;;;;;;;;;23.00;49.20;;;;;;1545931;76;734;-69
2021/12/24 05:50:09;;;;;;;;;;;23.00;49.20;;;;;;1536978;76;796;-69
2021/12/24 05:52:10;;;;;;;;;;;23.00;49.30;;;;;;1561588;76;1178;-67
2021/12/24 05:54:12;;;;;;;;;;;23.00;49.20;;;;;;1557280;76;797;-66
2021/12/24 05:56:14;;;;;;;;;;;23.00;49.40;;;;;;1545004;76;737;-67
2021/12/24 05:58:16;;;;;;;;;;;23.00;49.40;;;;;;1547398;76;1920;-68
2021/12/24 06:00:18;;;;;;;;;;;23.00;49.40;;;;;;1547363;76;759;-68
2021/12/24 06:02:20;;;;;;;;;;;23.00;49.40;;;;;;1547496;77;1154;-68
2021/12/24 06:04:22;;;;;;;;;;;23.00;49.30;;;;;;1547351;77;654;-68
2021/12/24 06:06:24;;;;;;;;;;;23.00;49.30;;;;;;1547401;76;719;-70
2021/12/24 06:08:26;;;;;;;;;;;23.00;49.30;;;;;;1536822;77;725;-68
2021/12/24 06:10:27;;;;;;;;;;;23.00;49.40;;;;;;1536554;77;751;-67
2021/12/24 06:12:29;;;;;;;;;;;23.00;49.40;;;;;;1536640;77;1135;-68
2021/12/24 06:14:31;;;;;;;;;;;23.00;49.30;;;;;;1536660;77;764;-67
2021/12/24 06:16:35;;;;;;;;;;;23.00;49.20;;;;;;1538034;76;715;-66
2021/12/24 06:18:40;;;;;;;;;;;23.10;49.30;;;;;;1551316;76;1908;-67
2021/12/24 06:20:41;;;;;;;;;;;23.00;49.20;;;;;;1536135;77;1659;-68
2021/12/24 06:22:43;;;;;;;;;;;23.00;49.20;;;;;;1536640;77;1143;-69
2021/12/24 06:24:45;;;;;;;;;;;23.10;49.40;;;;;;1536776;77;557;-70
2021/12/24 06:26:47;;;;;;;;;;;23.10;49.70;;;;;;1537281;76;705;-69
2021/12/24 06:28:49;;;;;;;;;;;23.10;49.70;;;;;;1536713;77;748;-69
2021/12/24 06:30:51;;;;;;;;;;;23.00;49.70;;;;;;1541750;76;721;-69
2021/12/24 06:32:53;;;;;;;;;;;23.00;49.50;;;;;;1549869;76;1149;-69
2021/12/24 06:34:55;;;;;;;;;;;23.10;49.50;;;;;;1547154;76;723;-69
2021/12/24 06:36:57;;;;;;;;;;;23.00;49.30;;;;;;1562563;76;638;-70
2021/12/24 06:38:59;;;;;;;;;;;23.10;49.60;;;;;;1562640;76;1915;-68
2021/12/24 06:41:01;;;;;;;;;;;23.10;49.70;;;;;;1562658;76;746;-70
2021/12/24 06:43:04;;;;;;;;;;;23.00;49.60;;;;;;1555796;76;1103;-69
2021/12/24 06:45:06;;;;;;;;;;;23.00;49.60;;;;;;1536550;77;801;-67
2021/12/24 06:47:07;;;;;;;;;;;23.10;49.70;;;;;;1536322;76;748;-68
2021/12/24 06:49:10;;;;;;;;;;;23.00;49.60;;;;;;1544041;76;725;-65
2021/12/24 06:51:12;;;;;;;;;;;23.10;49.70;;;;;;1561892;75;692;-65
2021/12/24 06:53:13;;;;;;;;;;;23.10;49.60;;;;;;1553737;76;1163;-65
2021/12/24 06:55:15;;;;;;;;;;;23.10;49.50;;;;;;1551975;76;729;-65
2021/12/24 06:57:19;;;;;;;;;;;23.10;49.50;;;;;;1550200;76;703;-66
2021/12/24 06:59:21;;;;;;;;;;;23.10;49.40;;;;;;1547191;76;1905;-66
2021/12/24 07:01:23;;;;;;;;;;;23.00;49.40;;;;;;1540250;76;780;-64
2021/12/24 07:03:25;;;;;;;;;;;23.00;49.40;;;;;;1542782;76;1132;-65
2021/12/24 07:05:26;;;;;;;;;;;23.10;49.50;;;;;;1540286;76;783;-65
2021/12/24 07:07:28;;;;;;;;;;;23.10;49.40;;;;;;1541110;76;922;-66
2021/12/24 07:09:30;;;;;;;;;;;23.10;49.40;;;;;;1542351;76;700;-65
2021/12/24 07:11:32;;;;;;;;;;;23.10;49.40;;;;;;1537936;76;798;-65
2021/12/24 07:13:34;;;;;;;;;;;23.10;49.40;;;;;;1538766;76;1153;-64
2021/12/24 07:15:36;;;;;;;;;;;23.10;49.40;;;;;;1539674;76;780;-65
2021/12/24 07:17:38;;;;;;;;;;;23.10;49.40;;;;;;1538866;76;745;-66
2021/12/24 07:19:40;;;;;;;;;;;23.00;49.30;;;;;;1538510;76;1948;-64
2021/12/24 07:21:41;;;;;;;;;;;23.10;49.40;;;;;;1538955;76;784;-65
2021/12/24 07:23:43;;;;;;;;;;;23.00;49.30;;;;;;1538746;76;1130;-65
2021/12/24 07:25:46;;;;;;;;;;;23.10;49.40;;;;;;1538761;76;770;-66
2021/12/24 07:27:47;;;;;;;;;;;23.10;49.40;;;;;;1542839;76;778;-66
2021/12/24 07:29:49;;;;;;;;;;;23.00;49.30;;;;;;1538911;76;776;-66
2021/12/24 07:31:51;;;;;;;;;;;23.10;49.60;;;;;;1538847;76;1194;-67
2021/12/24 07:33:53;;;;;;;;;;;23.10;49.60;;;;;;1538869;76;718;-66
2021/12/24 07:35:55;;;;;;;;;;;23.10;49.50;;;;;;1552907;76;740;-67
2021/12/24 07:37:57;;;;;;;;;;;23.00;49.40;;;;;;1554686;76;688;-67
2021/12/24 07:40:00;;;;;;;;;;;23.10;49.50;;;;;;1560804;76;1947;-67
2021/12/24 07:42:02;;;;;;;;;;;23.20;49.20;;;;;;1554350;76;1165;-67
2021/12/24 07:44:04;;;;;;;;;;;23.30;48.80;;;;;;1562723;76;654;-67
2021/12/24 07:46:06;;;;;;;;;;;23.50;48.30;;;;;;1544203;76;754;-67
2021/12/24 07:48:12;;;;;;;;;;;23.60;47.80;;;;;;1537272;76;739;-66
2021/12/24 07:52:18;;;;;;;;;;;23.80;47.30;;;;;;1527352;77;1123;-67
2021/12/24 07:54:20;;;;;;;;;;;23.90;47.10;;;;;;1536538;77;466;-66
2021/12/24 07:56:22;;;;;;;;;;;23.80;46.90;;;;;;1537214;76;731;-66
2021/12/24 07:58:24;;;;;;;;;;;23.90;46.90;;;;;;1536569;77;1918;-66
2021/12/24 08:00:26;;;;;;;;;;;23.90;46.80;;;;;;1536435;77;575;-66
2021/12/24 08:02:29;;;;;;;;;;;23.90;46.70;;;;;;1536472;77;1167;-66
2021/12/24 08:04:31;;;;;;;;;;;23.90;46.70;;;;;;1537164;76;799;-66
2021/12/24 08:06:33;;;;;;;;;;;23.90;46.60;;;;;;1536479;77;785;-66
2021/12/24 08:08:34;;;;;;;;;;;23.90;46.60;;;;;;1536613;77;705;-66
2021/12/24 08:10:37;;;;;;;;;;;23.90;46.60;;;;;;1536498;77;738;-66
2021/12/24 08:12:39;;;;;;;;;;;23.80;46.60;;;;;;1537180;76;1134;-65
2021/12/24 08:14:41;;;;;;;;;;;23.90;46.70;;;;;;1536630;77;726;-68
2021/12/24 08:16:44;;;;;;;;;;;23.90;46.70;;;;;;1536341;77;796;-65
2021/12/24 08:18:46;;;;;;;;;;;23.70;46.70;;;;;;1537248;76;1922;-65
2021/12/24 08:20:48;;;;;;;;;;;23.80;46.90;;;;;;1536420;77;763;-68
2021/12/24 08:22:51;;;;;;;;;;;23.80;46.80;;;;;;1536578;77;1127;-65
2021/12/24 08:24:53;;;;;;;;;;;23.80;45.80;;;;;;1536506;77;728;-66
2021/12/24 08:26:55;;;;;;;;;;;23.80;45.50;;;;;;1537136;76;798;-66
2021/12/24 08:28:57;;;;;;;;;;;23.60;46.10;;;;;;1536528;77;753;-66
2021/12/24 08:30:59;;;;;;;;;;;23.70;46.40;;;;;;1536548;77;656;-66
2021/12/24 08:33:01;;;;;;;;;;;23.70;46.60;;;;;;1536364;77;1131;-67
2021/12/24 08:35:04;;;;;;;;;;;23.70;46.80;;;;;;1537251;76;784;-66
2021/12/24 08:37:06;;;;;;;;;;;23.70;46.90;;;;;;1536358;77;678;-65
2021/12/24 08:39:08;;;;;;;;;;;23.70;47.10;;;;;;1536453;77;1921;-65
2021/12/24 08:41:09;;;;;;;;;;;23.70;47.20;;;;;;1536597;77;725;-64
2021/12/24 08:43:11;;;;;;;;;;;23.70;47.30;;;;;;1579932;72;2065;-67
2021/12/24 08:45:13;;;;;;;;;;;23.70;47.40;;;;;;1608825;73;723;-68
2021/12/24 08:47:15;;;;;;;;;;;23.60;47.40;;;;;;1627654;73;812;-66
2021/12/24 08:49:18;;;;;;;;;;;23.70;47.60;;;;;;1606428;73;691;-67
2021/12/24 08:51:20;;;;;;;;;;;23.60;47.60;;;;;;1616456;73;735;-68
2021/12/24 08:53:23;;;;;;;;;;;23.60;47.70;;;;;;1621269;73;1217;-68
2021/12/24 08:55:25;;;;;;;;;;;23.60;47.70;;;;;;1618068;73;739;-67
2021/12/24 08:57:27;;;;;;;;;;;23.60;47.80;;;;;;1595572;73;775;-68
2021/12/24 08:59:28;;;;;;;;;;;23.60;47.80;;;;;;1564944;76;1939;-68
2021/12/24 09:01:30;;;;;;;;;;;23.60;47.80;;;;;;1565100;76;815;-69
2021/12/24 09:03:32;;;;;;;;;;;23.60;47.90;;;;;;1565111;76;1174;-68
2021/12/24 09:05:34;;;;;;;;;;;23.60;47.90;;;;;;1565754;75;663;-67
2021/12/24 09:07:36;;;;;;;;;;;23.70;48.10;;;;;;1564999;75;803;-70
2021/12/24 09:09:38;;;;;;;;;;;23.70;48.20;;;;;;1619622;73;730;-70
2021/12/24 09:11:40;;;;;;;;;;;23.70;48.40;;;;;;1620533;73;791;-70
2021/12/24 09:13:43;;;;;;;;;;;23.70;48.40;;;;;;1620441;73;1095;-70
2021/12/24 09:15:45;;;;;;;;;;;23.70;48.40;;;;;;1586304;73;722;-70
2021/12/24 09:17:47;;;;;;;;;;;23.70;48.40;;;;;;1565348;75;757;-70
2021/12/24 09:19:51;;;;;;;;;;;23.70;48.40;;;;;;1564926;76;1911;-79
2021/12/24 09:21:55;;;;;;;;;;;23.70;48.10;;;;;;1564935;76;713;-71
2021/12/24 09:23:58;;;;;;;;;;;23.70;47.20;;;;;;1564699;76;1666;-71
2021/12/24 09:26:00;;;;;;;;;;;23.70;46.40;;;;;;1564787;76;725;-72
2021/12/24 09:28:02;;;;;;;;;;;23.60;45.60;;;;;;1565900;75;795;-68
2021/12/24 09:30:04;;;;;;;;;;;23.60;46.30;;;;;;1565031;76;773;-69
2021/12/24 09:32:06;;;;;;;;;;;23.60;46.40;;;;;;1564857;76;1145;-72
2021/12/24 09:34:08;;;;;;;;;;;23.60;46.50;;;;;;1565267;75;754;-69
2021/12/24 09:36:10;;;;;;;;;;;23.60;46.60;;;;;;1564901;76;679;-70
2021/12/24 09:38:12;;;;;;;;;;;23.70;46.40;;;;;;1565085;76;795;-69
2021/12/24 09:40:14;;;;;;;;;;;23.60;46.10;;;;;;1564940;76;1946;-69
2021/12/24 09:42:16;;;;;;;;;;;23.60;46.20;;;;;;1564886;76;1157;-69
2021/12/24 09:44:18;;;;;;;;;;;23.60;46.30;;;;;;1565956;75;760;-67
2021/12/24 09:46:20;;;;;;;;;;;23.60;46.40;;;;;;1569231;75;791;-69
2021/12/24 09:48:22;;;;;;;;;;;23.60;46.20;;;;;;1612108;73;697;-69
2021/12/24 09:50:24;;;;;;;;;;;23.60;46.30;;;;;;1620201;72;698;-71
2021/12/24 09:52:26;;;;;;;;;;;23.60;46.00;;;;;;1618099;73;1182;-75
2021/12/24 09:54:28;;;;;;;;;;;23.60;45.70;;;;;;1618262;73;714;-71
2021/12/24 09:56:30;;;;;;;;;;;23.50;45.00;;;;;;1618216;73;643;-70
2021/12/24 09:58:32;;;;;;;;;;;23.50;44.60;;;;;;1594809;73;702;-71
2021/12/24 10:00:34;;;;;;;;;;;23.50;45.00;;;;;;1620361;73;1923;-71
2021/12/24 10:02:41;;;;;;;;;;;23.50;45.20;;;;;;1620313;73;1142;-68
2021/12/24 10:04:43;;;;;;;;;;;23.60;45.20;;;;;;1599426;73;2000;-69
2021/12/24 10:06:52;;;;;;;;;;;23.60;45.20;;;;;;1620331;73;790;-69
2021/12/24 10:09:01;;;;;;;;;;;23.60;45.30;;;;;;1620293;73;755;-68
2021/12/24 10:11:04;;;;;;;;;;;23.70;45.40;;;;;;1620436;73;745;-69
2021/12/24 10:13:24;;;;;;;;;;;23.60;45.20;;;;;;1592922;73;1157;-70
2021/12/24 10:15:26;;;;;;;;;;;23.70;45.40;;;;;;1619670;73;674;-73
2021/12/24 10:17:32;;;;;;;;;;;23.70;45.00;;;;;;1615545;70;3018;-65
2021/12/24 10:19:44;;;;;;;;;;;23.60;44.60;;;;;;1600553;74;1936;-69
2021/12/24 10:21:46;;;;;;;;;;;23.60;44.70;;;;;;1583717;75;718;-63
2021/12/24 10:23:49;;;;;;;;;;;23.50;44.60;;;;;;1596748;74;721;-65
2021/12/24 10:25:50;;;;;;;;;;;23.50;44.60;;;;;;1609756;74;810;-64
2021/12/24 10:27:52;;;;;;;;;;;23.60;44.80;;;;;;1620192;72;1178;-63
2021/12/24 10:29:54;;;;;;;;;;;23.60;44.90;;;;;;1639976;72;688;-63
2021/12/24 10:31:57;;;;;;;;;;;23.60;44.90;;;;;;1636769;71;2118;-68
2021/12/24 10:34:17;;;;;;;;;;;23.70;45.00;;;;;;1583531;75;662;-68
2021/12/24 10:36:19;;;;;;;;;;;23.70;44.90;;;;;;1583293;75;672;-69
2021/12/24 10:38:21;;;;;;;;;;;23.70;44.90;;;;;;1583579;75;657;-67
2021/12/24 10:40:23;;;;;;;;;;;23.70;45.00;;;;;;1583853;75;1907;-67
2021/12/24 10:42:29;;;;;;;;;;;23.60;44.90;;;;;;1584160;74;1181;-68
2021/12/24 10:44:32;;;;;;;;;;;23.70;45.00;;;;;;1584154;75;724;-68
2021/12/24 10:46:34;;;;;;;;;;;23.70;45.00;;;;;;1582674;75;1776;-67
2021/12/24 10:48:37;;;;;;;;;;;23.70;45.20;;;;;;1584120;75;749;-67
2021/12/24 10:50:49;;;;;;;;;;;23.70;45.20;;;;;;1583943;75;811;-70
2021/12/24 10:55:00;;;;;;;;;;;23.60;45.20;;;;;;1584069;75;701;-70
2021/12/24 10:57:17;;;;;;;;;;;23.60;45.30;;;;;;1583883;75;807;-67
2021/12/24 10:59:21;;;;;;;;;;;23.50;45.40;;;;;;1583972;75;1935;-67
2021/12/24 11:01:23;;;;;;;;;;;23.50;45.50;;;;;;1579679;75;1692;-67
2021/12/24 11:03:26;;;;;;;;;;;23.50;45.60;;;;;;1584100;75;1108;-68
2021/12/24 11:05:35;;;;;;;;;;;23.50;45.70;;;;;;1583886;75;701;-67
2021/12/24 11:07:40;;;;;;;;;;;23.50;45.70;;;;;;1583996;75;723;-68
2021/12/24 11:09:44;;;;;;;;;;;23.40;45.70;;;;;;1584037;75;728;-68
2021/12/24 11:11:47;;;;;;;;;;;23.40;45.70;;;;;;1579351;75;1692;-68
2021/12/24 11:13:49;;;;;;;;;;;23.50;45.90;;;;;;1584004;75;762;-67
2021/12/24 11:15:51;;;;;;;;;;;23.40;45.70;;;;;;1584065;75;724;-68
2021/12/24 11:17:54;;;;;;;;;;;23.40;45.80;;;;;;1583991;75;735;-69
2021/12/24 11:19:57;;;;;;;;;;;23.40;45.80;;;;;;1583979;75;1941;-68
2021/12/24 11:22:03;;;;;;;;;;;23.40;45.90;;;;;;1553763;76;1153;-67
2021/12/24 11:24:05;;;;;;;;;;;23.30;45.90;;;;;;1583936;75;754;-67
2021/12/24 11:26:07;;;;;;;;;;;23.40;46.00;;;;;;1583900;75;754;-67
2021/12/24 11:28:10;;;;;;;;;;;23.30;46.00;;;;;;1583944;75;717;-69
2021/12/24 11:30:12;;;;;;;;;;;23.30;46.00;;;;;;1584095;75;755;-69
2021/12/24 11:32:13;;;;;;;;;;;23.30;46.10;;;;;;1583987;75;1140;-69
2021/12/24 11:34:15;;;;;;;;;;;23.30;46.10;;;;;;1583839;75;804;-67
2021/12/24 11:36:17;;;;;;;;;;;23.30;46.20;;;;;;1584046;75;701;-67
2021/12/24 11:38:21;;;;;;;;;;;23.30;46.20;;;;;;1583873;75;732;-67
2021/12/24 11:40:24;;;;;;;;;;;23.30;46.30;;;;;;1582657;75;1931;-68
2021/12/24 11:42:27;;;;;;;;;;;23.30;46.30;;;;;;1583953;75;1148;-67
2021/12/24 11:44:29;;;;;;;;;;;23.30;46.30;;;;;;1583877;75;707;-68
2021/12/24 11:46:31;;;;;;;;;;;23.30;46.40;;;;;;1584056;75;769;-70
2021/12/24 11:48:33;;;;;;;;;;;23.30;46.50;;;;;;1584044;75;715;-67
2021/12/24 11:50:35;;;;;;;;;;;23.30;46.50;;;;;;1583944;75;713;-68
2021/12/24 11:52:37;;;;;;;;;;;23.30;46.50;;;;;;1570062;75;1157;-68
2021/12/24 11:54:39;;;;;;;;;;;23.30;46.50;;;;;;1556800;76;609;-69
2021/12/24 11:56:46;;;;;;;;;;;23.20;46.40;;;;;;1556997;76;802;-69
2021/12/24 11:58:50;;;;;;;;;;;23.20;46.50;;;;;;1555453;76;1801;-68
2021/12/24 12:00:56;;;;;;;;;;;23.30;46.60;;;;;;1556733;76;1907;-69
2021/12/24 12:02:58;;;;;;;;;;;23.20;46.50;;;;;;1556912;76;1173;-68
2021/12/24 12:05:16;;;;;;;;;;;23.10;46.50;;;;;;1556725;76;731;-69
2021/12/24 12:07:18;;;;;;;;;;;23.30;46.60;;;;;;1556848;76;732;-68
2021/12/24 12:09:20;;;;;;;;;;;23.20;46.50;;;;;;1556911;76;786;-69
2021/12/24 12:11:24;;;;;;;;;;;23.20;46.60;;;;;;1556902;76;782;-67
2021/12/24 12:13:40;;;;;;;;;;;23.10;46.60;;;;;;1556838;76;1144;-67
2021/12/24 12:15:42;;;;;;;;;;;23.10;46.70;;;;;;1556669;76;774;-67
2021/12/24 12:17:51;;;;;;;;;;;23.10;46.70;;;;;;1527882;77;988;-67
2021/12/24 12:20:00;;;;;;;;;;;23.10;46.70;;;;;;1556881;76;1907;-68
2021/12/24 12:22:32;;;;;;;;;;;23.20;46.70;;;;;;1556723;76;1154;-67
2021/12/24 12:26:35;;;;;;;;;;;23.10;46.80;;;;;;1527586;76;1166;-68
2021/12/24 12:28:37;;;;;;;;;;;23.10;46.80;;;;;;1556976;76;768;-69
2021/12/24 12:30:42;;;;;;;;;;;23.10;46.80;;;;;;1556868;76;743;-67
2021/12/24 12:32:43;;;;;;;;;;;23.10;46.80;;;;;;1556898;76;1940;-67
2021/12/24 12:34:47;;;;;;;;;;;23.10;46.80;;;;;;1557113;76;793;-68
2021/12/24 12:36:49;;;;;;;;;;;23.10;46.80;;;;;;1556803;76;831;-67
2021/12/24 12:38:51;;;;;;;;;;;23.10;46.80;;;;;;1527901;77;1234;-68
2021/12/24 12:40:53;;;;;;;;;;;23.10;46.80;;;;;;1556976;76;1903;-67
2021/12/24 12:42:57;;;;;;;;;;;23.00;46.80;;;;;;1556819;76;1177;-68
2021/12/24 12:44:59;;;;;;;;;;;23.10;46.90;;;;;;1556941;76;780;-66
2021/12/24 12:47:11;;;;;;;;;;;23.00;46.80;;;;;;1556837;76;744;-67
2021/12/24 12:49:18;;;;;;;;;;;23.00;46.80;;;;;;1556997;76;866;-68
2021/12/24 12:51:19;;;;;;;;;;;23.10;47.00;;;;;;1555524;76;1149;-68
2021/12/24 12:53:28;;;;;;;;;;;23.10;46.90;;;;;;1580491;75;1144;-69
2021/12/24 12:55:30;;;;;;;;;;;23.00;46.80;;;;;;1584037;75;689;-68
2021/12/24 12:57:32;;;;;;;;;;;23.00;46.80;;;;;;1583920;75;545;-67
2021/12/24 12:59:34;;;;;;;;;;;23.00;46.90;;;;;;1584083;75;704;-68
2021/12/24 13:01:50;;;;;;;;;;;23.00;47.00;;;;;;1584026;75;1919;-68
2021/12/24 13:04:05;;;;;;;;;;;23.00;46.90;;;;;;1583992;75;762;-69
2021/12/24 13:06:04;;;;;;;;;;;23.00;47.00;;;;;;1582188;75;1596;-67
2021/12/24 13:08:12;;;;;;;;;;;23.00;47.00;;;;;;1583991;75;710;-68
2021/12/24 13:10:17;;;;;;;;;;;23.00;47.10;;;;;;1584067;75;812;-67
2021/12/24 13:12:18;;;;;;;;;;;23.00;47.00;;;;;;1583334;75;1140;-67
2021/12/24 13:14:21;;;;;;;;;;;23.00;47.10;;;;;;1584022;75;651;-68
2021/12/24 13:16:24;;;;;;;;;;;23.00;47.00;;;;;;1583975;75;785;-67
2021/12/24 13:18:30;;;;;;;;;;;22.90;47.10;;;;;;1583895;75;712;-67
2021/12/24 13:20:55;;;;;;;;;;;23.00;47.10;;;;;;1583831;75;1921;-67
2021/12/24 13:22:37;;;;;;;;;;;22.90;47.10;;;;;;1579261;75;1504;-67
2021/12/24 13:24:39;;;;;;;;;;;22.90;47.10;;;;;;1584048;75;713;-69
2021/12/24 13:26:42;;;;;;;;;;;22.90;47.10;;;;;;1584046;75;740;-69
2021/12/24 13:29:01;;;;;;;;;;;22.90;47.10;;;;;;1583960;75;543;-67
2021/12/24 13:31:15;;;;;;;;;;;22.90;47.10;;;;;;1584144;75;743;-67
2021/12/24 13:33:18;;;;;;;;;;;22.90;47.10;;;;;;1584011;75;1140;-67
2021/12/24 13:35:24;;;;;;;;;;;22.90;47.10;;;;;;1583923;75;890;-68
2021/12/24 13:37:28;;;;;;;;;;;22.90;47.20;;;;;;1584043;75;801;-67
2021/12/24 13:39:30;;;;;;;;;;;22.90;47.20;;;;;;1583877;75;2014;-70
2021/12/24 13:41:32;;;;;;;;;;;22.90;47.20;;;;;;1584065;75;1938;-67
2021/12/24 13:43:37;;;;;;;;;;;22.80;47.10;;;;;;1584100;75;1106;-67